Time;durP1;ratioP1;P1;durP2;ratioP2;P2;SDS_P1;SDS_P2;PMS_P1;PMS_P2;Temp;Humidity;BMP_temperature;BMP_pressure;BME280_temperature;BME280_humidity;BME280_pressure;Samples;Min_cycle;Max_cycle;Signal;HPM_P1;HPM_P2
2021/07/01 00:01:05;;;;;;;;;7.50;6.00;;;;;16.56;72.79;101527.88;5007976;28;45812;-73
2021/07/01 00:03:30;;;;;;;;;9.00;7.50;;;;;16.58;73.33;101527.72;5010996;28;45810;-71
2021/07/01 00:05:57;;;;;;;;;7.00;7.00;;;;;16.58;72.90;101530.38;5014274;28;45983;-74
2021/07/01 00:08:24;;;;;;;;;7.00;6.00;;;;;16.56;73.29;101520.69;5011850;28;45762;-73
2021/07/01 00:10:50;;;;;;;;;8.00;6.25;;;;;16.55;71.56;101524.38;5009723;28;45525;-74
2021/07/01 00:13:15;;;;;;;;;9.00;7.75;;;;;16.54;71.56;101525.38;5008661;28;46275;-72
2021/07/01 00:15:41;;;;;;;;;8.00;6.50;;;;;16.54;73.29;101525.38;5008039;28;45684;-72
2021/07/01 00:18:06;;;;;;;;;9.75;7.00;;;;;16.53;72.04;101514.88;5008762;28;45684;-76
2021/07/01 00:20:32;;;;;;;;;10.00;7.25;;;;;16.53;72.11;101515.69;5010514;28;45401;-73
2021/07/01 00:22:57;;;;;;;;;7.50;6.00;;;;;16.52;72.99;101522.06;5014033;28;45407;-73
2021/07/01 00:25:24;;;;;;;;;7.25;7.00;;;;;16.52;72.99;101521.22;5007255;28;45589;-75
2021/07/01 00:27:50;;;;;;;;;11.50;9.00;;;;;16.52;73.50;101523.91;5012513;28;45530;-74
2021/07/01 00:30:17;;;;;;;;;9.25;8.00;;;;;16.52;72.27;101519.38;5014293;28;45490;-71
2021/07/01 00:32:43;;;;;;;;;8.00;7.25;;;;;16.50;72.13;101524.06;5014481;28;47419;-75
2021/07/01 00:35:09;;;;;;;;;10.25;7.50;;;;;16.51;72.05;101520.38;5010280;28;46098;-75
2021/07/01 00:37:35;;;;;;;;;7.00;7.00;;;;;16.51;71.66;101520.38;5008238;28;45512;-75
2021/07/01 00:40:01;;;;;;;;;8.00;7.75;;;;;16.51;72.20;101524.88;5015491;28;45536;-73
2021/07/01 00:42:27;;;;;;;;;8.00;8.00;;;;;16.51;71.91;101520.38;5014405;28;45642;-71
2021/07/01 00:44:52;;;;;;;;;7.00;6.75;;;;;16.51;73.00;101524.88;5011040;28;45830;-75
2021/07/01 00:47:18;;;;;;;;;9.50;7.75;;;;;16.50;73.05;101524.06;5008657;28;45620;-73
2021/07/01 00:49:44;;;;;;;;;9.00;8.00;;;;;16.47;73.15;101521.72;5007030;28;45838;-73
2021/07/01 00:52:10;;;;;;;;;8.50;7.00;;;;;16.45;73.64;101515.72;5008779;28;46345;-76
2021/07/01 00:54:37;;;;;;;;;8.75;7.00;;;;;16.45;74.31;101521.06;5007852;28;45566;-71
2021/07/01 00:57:03;;;;;;;;;9.00;6.00;;;;;16.43;73.21;101515.06;5007909;28;45720;-74
2021/07/01 00:59:28;;;;;;;;;6.75;6.75;;;;;16.41;73.88;101516.22;5014589;28;45470;-72
2021/07/01 01:01:53;;;;;;;;;9.00;7.00;;;;;16.40;74.24;101518.06;5007977;28;46389;-73
2021/07/01 01:04:19;;;;;;;;;9.25;9.00;;;;;16.40;74.91;101515.41;5009892;28;45377;-76
2021/07/01 01:06:45;;;;;;;;;8.50;7.75;;;;;16.39;75.12;101519.03;5007817;28;45485;-73
2021/07/01 01:09:10;;;;;;;;;12.00;7.25;;;;;16.38;74.27;101513.91;5008490;28;45508;-73
2021/07/01 01:11:37;;;;;;;;;10.00;8.00;;;;;16.37;74.38;101523.75;5018569;28;46023;-72
2021/07/01 01:14:03;;;;;;;;;9.00;7.00;;;;;16.37;74.63;101513.06;5010937;28;45495;-73
2021/07/01 01:16:28;;;;;;;;;6.00;6.00;;;;;16.36;74.07;101511.38;5022313;28;45942;-74
2021/07/01 01:18:54;;;;;;;;;9.50;7.00;;;;;16.33;74.68;101517.91;5018692;28;45536;-74
2021/07/01 01:21:28;;;;;;;;;9.75;7.75;;;;;16.32;74.93;101512.75;5015314;28;46007;-71
2021/07/01 01:23:55;;;;;;;;;13.00;9.00;;;;;16.31;74.84;101513.72;5012708;28;45882;-77
2021/07/01 01:26:20;;;;;;;;;9.75;7.75;;;;;16.30;75.14;101515.56;5008185;28;45645;-72
2021/07/01 01:28:46;;;;;;;;;12.25;9.00;;;;;16.28;74.66;101512.22;5010094;28;45517;-72
2021/07/01 01:31:11;;;;;;;;;8.25;8.25;;;;;16.26;74.84;101511.56;5009480;28;46443;-73
2021/07/01 01:33:37;;;;;;;;;6.50;6.25;;;;;16.24;75.04;101515.41;5009157;28;45545;-74
2021/07/01 01:36:02;;;;;;;;;8.75;8.75;;;;;16.25;75.01;101519.75;5013946;28;45934;-72
2021/07/01 01:38:28;;;;;;;;;10.75;8.00;;;;;16.22;75.16;101520.91;5013225;28;45540;-77
2021/07/01 01:40:53;;;;;;;;;10.00;8.00;;;;;16.23;74.97;101524.41;5009701;28;45762;-71
2021/07/01 01:43:39;;;;;;;;;7.50;7.50;;;;;16.23;75.68;101519.06;5012363;28;45943;-72
2021/07/01 01:46:04;;;;;;;;;10.25;9.75;;;;;16.20;75.15;101516.75;5009113;28;45607;-73
2021/07/01 01:48:29;;;;;;;;;8.25;8.00;;;;;16.20;75.72;101522.09;5012317;28;45450;-72
2021/07/01 01:50:55;;;;;;;;;9.25;9.25;;;;;16.19;76.24;101520.41;5013825;28;45719;-73
2021/07/01 01:53:20;;;;;;;;;10.25;9.25;;;;;16.17;75.65;101517.91;5012942;28;45461;-75
2021/07/01 01:55:46;;;;;;;;;11.25;10.00;;;;;16.16;76.19;101526.91;5007971;28;45828;-73
2021/07/01 01:58:12;;;;;;;;;9.25;8.00;;;;;16.13;75.79;101517.41;5025066;28;45564;-76
2021/07/01 02:00:37;;;;;;;;;11.00;8.50;;;;;16.11;76.12;101508.72;5004431;28;46536;-71
2021/07/01 02:03:03;;;;;;;;;13.75;10.75;;;;;16.08;76.41;101509.06;5010884;28;45588;-71
2021/07/01 02:05:29;;;;;;;;;10.75;9.50;;;;;16.07;75.86;101507.41;5012683;28;45574;-73
2021/07/01 02:07:55;;;;;;;;;12.25;11.00;;;;;16.03;76.44;101506.06;5010658;28;47721;-75
2021/07/01 02:10:23;;;;;;;;;13.75;8.25;;;;;16.01;75.19;101509.91;5010677;28;45656;-71
2021/07/01 02:12:49;;;;;;;;;10.00;7.75;;;;;15.97;76.44;101519.22;5012417;28;45791;-73
2021/07/01 02:15:18;;;;;;;;;9.50;8.00;;;;;15.93;75.26;101507.25;5009077;28;47357;-75
2021/07/01 02:17:44;;;;;;;;;9.75;9.00;;;;;15.89;75.40;101504.06;5012105;28;46059;-75
2021/07/01 02:20:16;;;;;;;;;10.25;8.25;;;;;15.85;74.85;101502.72;5012028;28;45499;-73
2021/07/01 02:22:42;;;;;;;;;8.75;8.75;;;;;15.82;75.54;101514.53;5012893;28;45414;-75
2021/07/01 02:25:08;;;;;;;;;8.25;8.25;;;;;15.76;75.16;101509.88;5028436;28;45517;-77
2021/07/01 02:27:35;;;;;;;;;9.00;9.00;;;;;15.71;75.33;101509.56;5011169;28;45495;-73
2021/07/01 02:30:02;;;;;;;;;10.25;8.75;;;;;15.64;74.80;101506.66;5010657;28;45661;-75
2021/07/01 02:32:27;;;;;;;;;11.25;9.25;;;;;15.58;75.51;101507.34;5012103;28;45579;-75
2021/07/01 02:34:53;;;;;;;;;11.75;10.75;;;;;15.55;76.17;101504.16;5011620;28;45975;-73
2021/07/01 02:37:19;;;;;;;;;11.50;10.50;;;;;15.50;75.93;101504.63;5008358;28;45565;-71
2021/07/01 02:39:45;;;;;;;;;10.00;10.00;;;;;15.46;76.68;101508.63;5006603;28;46235;-72
2021/07/01 02:42:11;;;;;;;;;9.00;8.25;;;;;15.42;76.37;101496.63;5009746;28;45505;-73
2021/07/01 02:44:37;;;;;;;;;9.00;9.00;;;;;15.39;77.00;101496.97;5019742;28;45472;-69
2021/07/01 02:47:02;;;;;;;;;10.75;9.50;;;;;15.37;77.99;101497.09;5010085;28;45752;-71
2021/07/01 02:49:28;;;;;;;;;9.50;8.00;;;;;15.35;76.99;101495.59;5013847;28;45633;-73
2021/07/01 02:51:53;;;;;;;;;10.25;10.25;;;;;15.33;77.88;101501.13;5009692;28;45621;-72
2021/07/01 02:54:20;;;;;;;;;14.00;9.25;;;;;15.32;77.80;101493.28;5014249;28;45956;-72
2021/07/01 02:56:47;;;;;;;;;11.00;8.00;;;;;15.32;77.66;101490.59;5017055;28;46285;-70
2021/07/01 02:59:15;;;;;;;;;7.25;7.00;;;;;15.31;78.05;101504.94;5012980;28;45370;-75
2021/07/01 03:01:44;;;;;;;;;10.00;9.00;;;;;15.32;77.11;101503.94;5013213;28;45428;-72
2021/07/01 03:04:10;;;;;;;;;13.00;9.25;;;;;15.31;77.24;101503.09;5016956;28;45620;-71
2021/07/01 03:06:36;;;;;;;;;10.50;8.00;;;;;15.31;77.65;101496.94;5015971;28;48297;-71
2021/07/01 03:09:02;;;;;;;;;9.00;7.75;;;;;15.31;78.20;101491.63;5010886;28;46237;-69
2021/07/01 03:11:28;;;;;;;;;12.25;9.75;;;;;15.31;78.16;101495.09;5018132;28;45473;-71
2021/07/01 03:13:54;;;;;;;;;14.00;11.25;;;;;15.32;78.50;101486.09;5020707;28;45781;-70
2021/07/01 03:16:20;;;;;;;;;10.50;10.50;;;;;15.33;78.09;101487.78;5009255;28;45634;-71
2021/07/01 03:18:50;;;;;;;;;8.75;8.75;;;;;15.34;77.88;101488.63;5010823;28;45817;-69
2021/07/01 03:21:17;;;;;;;;;10.75;9.25;;;;;15.34;77.37;101488.63;5008687;28;45659;-72
2021/07/01 03:23:43;;;;;;;;;11.75;10.75;;;;;15.35;77.83;101490.28;5011845;28;45530;-68
2021/07/01 03:26:09;;;;;;;;;11.25;9.25;;;;;15.36;78.66;101484.81;5009489;28;45739;-71
2021/07/01 03:28:36;;;;;;;;;9.75;9.00;;;;;15.37;78.63;101477.63;5010007;28;46393;-69
2021/07/01 03:31:02;;;;;;;;;11.00;9.75;;;;;15.37;78.55;101478.47;5010337;28;45438;-71
2021/07/01 03:33:28;;;;;;;;;10.50;8.00;;;;;15.38;78.00;101479.28;5010505;28;45528;-70
2021/07/01 03:35:53;;;;;;;;;14.00;12.25;;;;;15.39;78.58;101484.47;5012718;28;45418;-73
2021/07/01 03:38:18;;;;;;;;;11.75;10.00;;;;;15.39;78.15;101480.97;5011752;28;45594;-72
2021/07/01 03:40:43;;;;;;;;;11.00;10.00;;;;;15.39;78.41;101475.66;5011257;28;45487;-73
2021/07/01 03:43:09;;;;;;;;;14.00;10.75;;;;;15.39;78.15;101478.31;5006427;28;45418;-68
2021/07/01 03:45:34;;;;;;;;;12.25;10.00;;;;;15.39;78.40;101480.97;5008916;28;45549;-74
2021/07/01 03:48:00;;;;;;;;;12.50;8.75;;;;;15.39;78.19;101480.97;5012871;28;45421;-71
2021/07/01 03:50:25;;;;;;;;;10.50;9.00;;;;;15.40;79.03;101486.13;5006603;28;45485;-72
2021/07/01 03:52:51;;;;;;;;;14.25;11.00;;;;;15.40;79.11;101488.78;5011099;28;45823;-68
2021/07/01 03:55:18;;;;;;;;;12.25;11.00;;;;;15.40;78.77;101485.28;5011077;28;45467;-72
2021/07/01 03:57:44;;;;;;;;;12.75;10.25;;;;;15.41;78.87;101494.97;5012024;28;45602;-71
2021/07/01 04:00:10;;;;;;;;;15.50;12.25;;;;;15.42;78.80;101496.63;5011168;28;45540;-72
2021/07/01 04:02:36;;;;;;;;;13.00;8.50;;;;;15.43;79.07;101500.94;5012832;28;45393;-70
2021/07/01 04:05:01;;;;;;;;;12.00;11.75;;;;;15.42;78.11;101497.44;5009893;28;45502;-74
2021/07/01 04:07:26;;;;;;;;;14.75;11.75;;;;;15.41;78.07;101495.81;5009340;28;45469;-75
2021/07/01 04:09:52;;;;;;;;;19.75;13.75;;;;;15.40;78.23;101490.63;5009466;28;46003;-73
2021/07/01 04:12:17;;;;;;;;;12.75;11.00;;;;;15.39;78.24;101489.78;5010132;28;45385;-71
2021/07/01 04:14:42;;;;;;;;;15.50;13.75;;;;;15.39;78.48;101492.47;5015845;28;45560;-71
2021/07/01 04:17:08;;;;;;;;;13.00;10.50;;;;;15.39;78.15;101496.97;5009420;28;45956;-71
2021/07/01 04:19:33;;;;;;;;;13.25;13.25;;;;;15.38;78.25;101495.28;5009944;28;45568;-71
2021/07/01 04:22:00;;;;;;;;;12.75;12.00;;;;;15.38;78.55;101497.94;5009018;28;45457;-70
2021/07/01 04:24:26;;;;;;;;;17.00;11.75;;;;;15.40;79.13;101495.94;5008112;28;46127;-71
2021/07/01 04:26:51;;;;;;;;;14.25;11.50;;;;;15.38;78.73;101484.63;5011221;28;45433;-70
2021/07/01 04:29:18;;;;;;;;;15.00;12.25;;;;;15.40;79.01;101498.63;5022853;28;45484;-71
2021/07/01 04:31:44;;;;;;;;;16.00;13.75;;;;;15.42;78.19;101496.63;5011568;28;45453;-72
2021/07/01 04:34:09;;;;;;;;;17.50;14.50;;;;;15.42;79.13;101497.44;5009953;28;45443;-71
2021/07/01 04:36:34;;;;;;;;;15.25;13.75;;;;;15.44;79.25;101497.31;5008664;28;46564;-71
2021/07/01 04:39:00;;;;;;;;;15.50;13.25;;;;;15.46;79.79;101500.66;5009946;28;45617;-73
2021/07/01 04:41:25;;;;;;;;;16.00;12.75;;;;;15.51;80.08;101505.50;5009744;28;45748;-71
2021/07/01 04:43:51;;;;;;;;;15.25;15.00;;;;;15.54;80.33;101510.47;5008016;28;45385;-70
2021/07/01 04:46:17;;;;;;;;;16.25;14.00;;;;;15.57;79.83;101508.31;5006124;28;45537;-71
2021/07/01 04:48:42;;;;;;;;;13.25;13.00;;;;;15.60;79.30;101510.69;5007627;28;45479;-71
2021/07/01 04:51:08;;;;;;;;;14.00;14.00;;;;;15.64;79.51;101506.66;5007614;28;45552;-74
2021/07/01 04:53:33;;;;;;;;;16.25;13.00;;;;;15.66;79.82;101504.69;5009169;28;45547;-74
2021/07/01 04:55:59;;;;;;;;;21.00;15.00;;;;;15.69;79.40;101503.50;5004694;28;47325;-71
2021/07/01 04:58:24;;;;;;;;;20.75;15.00;;;;;15.73;79.65;101510.22;5006293;28;45425;-74
2021/07/01 05:00:49;;;;;;;;;14.75;12.75;;;;;15.76;79.33;101506.41;5007617;28;45524;-70
2021/07/01 05:03:15;;;;;;;;;13.75;11.25;;;;;15.78;79.42;101517.72;5007040;28;45724;-72
2021/07/01 05:05:41;;;;;;;;;14.75;12.00;;;;;15.81;79.04;101507.56;5007603;28;45354;-74
2021/07/01 05:08:07;;;;;;;;;17.25;13.00;;;;;15.83;79.25;101510.06;5005062;28;45403;-74
2021/07/01 05:10:33;;;;;;;;;19.00;14.75;;;;;15.85;78.78;101518.72;5006613;28;45572;-70
2021/07/01 05:12:58;;;;;;;;;16.75;13.75;;;;;15.88;78.94;101523.72;5004254;28;45371;-73
2021/07/01 05:15:24;;;;;;;;;16.50;15.75;;;;;15.88;79.03;101521.06;5006660;28;46087;-71
2021/07/01 05:17:49;;;;;;;;;17.75;13.25;;;;;15.90;78.51;101519.06;5008562;28;45588;-69
2021/07/01 05:20:15;;;;;;;;;18.50;16.25;;;;;15.90;78.14;101516.41;5006198;28;45374;-73
2021/07/01 05:22:40;;;;;;;;;18.50;15.00;;;;;15.93;78.58;101516.06;5005772;28;45727;-71
2021/07/01 05:25:06;;;;;;;;;18.75;14.00;;;;;15.97;78.09;101524.56;5004782;28;46888;-69
2021/07/01 05:27:31;;;;;;;;;12.25;11.00;;;;;15.97;79.20;101514.72;5007076;28;45645;-69
2021/07/01 05:29:56;;;;;;;;;14.75;12.00;;;;;15.99;78.67;101514.56;5007440;28;45517;-75
2021/07/01 05:32:22;;;;;;;;;17.50;15.75;;;;;16.01;77.95;101518.75;5007396;28;45572;-71
2021/07/01 05:34:47;;;;;;;;;14.00;13.25;;;;;16.03;77.87;101524.75;5006473;28;46218;-71
2021/07/01 05:37:13;;;;;;;;;19.75;13.25;;;;;16.04;77.47;101529.06;5008082;28;45737;-72
2021/07/01 05:39:38;;;;;;;;;16.75;13.25;;;;;16.07;77.39;101527.91;5008901;28;45681;-71
2021/07/01 05:42:04;;;;;;;;;16.00;14.50;;;;;16.08;77.11;101538.41;5011203;28;45475;-68
2021/07/01 05:44:29;;;;;;;;;19.75;16.25;;;;;16.10;76.92;101530.25;5013962;28;46058;-71
2021/07/01 05:46:55;;;;;;;;;14.00;14.00;;;;;16.12;77.70;101534.41;5009154;28;45512;-70
2021/07/01 05:49:20;;;;;;;;;14.25;12.25;;;;;16.15;78.33;101530.59;5009316;28;46296;-68
2021/07/01 05:51:47;;;;;;;;;18.25;16.25;;;;;16.20;78.15;101530.91;5009587;28;45846;-72
2021/07/01 05:56:38;;;;;;;;;17.00;15.75;;;;;16.34;76.42;101534.72;5011495;28;45447;-80
2021/07/01 05:59:08;;;;;;;;;22.25;17.50;;;;;16.48;77.51;101533.22;5009054;28;45522;-78
2021/07/01 06:01:38;;;;;;;;;18.75;16.75;;;;;16.64;77.01;101537.69;5008144;28;45453;-73
2021/07/01 06:04:05;;;;;;;;;17.75;16.50;;;;;16.79;76.56;101535.19;5008008;28;46384;-78
2021/07/01 06:06:32;;;;;;;;;23.50;21.25;;;;;16.95;76.10;101529.81;5010584;28;45485;-66
2021/07/01 06:08:59;;;;;;;;;19.50;15.75;;;;;17.09;74.95;101530.94;5010963;28;46013;-70
2021/07/01 06:11:25;;;;;;;;;18.75;18.75;;;;;17.20;75.25;101541.25;5004508;28;45553;-71
2021/07/01 06:13:52;;;;;;;;;21.25;19.00;;;;;17.38;74.45;101541.84;5019012;28;47537;-66
2021/07/01 06:16:23;;;;;;;;;19.75;17.50;;;;;17.58;73.92;101541.38;5005575;28;45575;-73
2021/07/01 06:18:50;;;;;;;;;21.00;19.25;;;;;17.74;73.52;101541.28;5007387;28;45510;-69
2021/07/01 06:21:16;;;;;;;;;20.00;19.00;;;;;17.89;72.67;101543.22;5007765;28;45943;-72
2021/07/01 06:23:42;;;;;;;;;16.00;15.50;;;;;18.01;71.98;101549.84;5011464;28;45530;-70
2021/07/01 06:26:09;;;;;;;;;15.50;15.50;;;;;18.12;71.79;101548.56;5008710;28;45413;-69
2021/07/01 06:28:40;;;;;;;;;20.75;17.75;;;;;18.18;72.14;101554.03;5007631;28;45430;-71
2021/07/01 06:31:10;;;;;;;;;15.75;14.75;;;;;18.27;71.48;101550.31;5001659;28;45492;-69
2021/07/01 06:33:40;;;;;;;;;23.50;19.00;;;;;18.40;70.95;101552.34;5009281;28;50765;-65
2021/07/01 06:36:08;;;;;;;;;20.75;17.75;;;;;18.59;70.84;101548.31;5004965;28;45621;-67
2021/07/01 06:38:36;;;;;;;;;17.00;15.00;;;;;18.82;69.99;101552.81;5022724;28;45410;-69
2021/07/01 06:41:06;;;;;;;;;19.75;16.00;;;;;18.98;69.77;101552.63;5010511;28;45595;-82
2021/07/01 06:43:32;;;;;;;;;18.00;15.25;;;;;19.10;69.25;101545.78;5020412;28;46548;-71
2021/07/01 06:46:00;;;;;;;;;17.25;16.50;;;;;19.16;68.34;101551.41;5002444;28;45619;-71
2021/07/01 06:48:26;;;;;;;;;18.50;18.00;;;;;19.13;68.40;101547.25;5006355;28;45555;-66
2021/07/01 06:50:58;;;;;;;;;19.75;15.75;;;;;19.12;68.77;101553.66;5011268;28;45485;-67
2021/07/01 06:53:26;;;;;;;;;16.25;14.00;;;;;19.21;67.90;101546.31;5010723;28;46284;-81
2021/07/01 06:55:53;;;;;;;;;18.50;16.25;;;;;19.39;67.77;101545.94;5009599;28;45720;-71
2021/07/01 06:58:19;;;;;;;;;16.25;15.75;;;;;19.66;67.38;101541.72;5010384;28;45595;-65
2021/07/01 07:00:45;;;;;;;;;18.25;16.75;;;;;19.86;66.98;101548.16;5007751;28;45515;-70
2021/07/01 07:03:17;;;;;;;;;15.25;12.75;;;;;20.03;66.35;101546.06;5021006;28;46233;-71
2021/07/01 07:05:48;;;;;;;;;17.75;13.50;;;;;20.13;65.34;101556.47;5009997;28;45458;-71
2021/07/01 07:08:14;;;;;;;;;15.75;12.75;;;;;20.23;65.08;101553.44;5002673;28;45505;-71
2021/07/01 07:10:43;;;;;;;;;12.50;12.00;;;;;20.35;65.20;101565.31;5002985;28;45442;-72
2021/07/01 07:13:09;;;;;;;;;13.25;13.25;;;;;20.41;63.43;101557.31;5005015;28;46728;-66
2021/07/01 07:15:34;;;;;;;;;16.50;12.75;;;;;20.48;63.34;101564.59;5008987;28;45467;-65
2021/07/01 07:18:26;;;;;;;;;11.75;10.50;;;;;20.57;63.11;101564.28;5008660;28;45512;-67
2021/07/01 07:20:57;;;;;;;;;14.00;12.75;;;;;20.77;62.58;101564.44;5008554;28;45418;-73
2021/07/01 07:23:31;;;;;;;;;14.00;12.00;;;;;20.93;62.14;101568.66;5002754;28;45617;-70
2021/07/01 07:25:58;;;;;;;;;12.25;9.50;;;;;21.02;61.94;101572.84;5004124;28;45910;-72
2021/07/01 07:28:26;;;;;;;;;11.25;11.25;;;;;21.21;61.49;101570.44;5003126;28;45532;-67
2021/07/01 07:30:55;;;;;;;;;12.50;9.50;;;;;21.40;61.54;101568.91;5006430;28;45366;-66
2021/07/01 07:33:27;;;;;;;;;11.50;8.50;;;;;21.75;60.71;101566.13;5003499;28;47412;-73
2021/07/01 07:35:53;;;;;;;;;10.50;6.75;;;;;22.17;60.01;101566.81;5001275;28;45920;-72
2021/07/01 07:38:19;;;;;;;;;11.25;9.00;;;;;22.52;59.40;101565.59;5006570;28;45594;-71
2021/07/01 07:40:49;;;;;;;;;10.75;8.00;;;;;22.80;58.91;101564.53;5006695;28;45763;-68
2021/07/01 07:43:17;;;;;;;;;8.00;7.25;;;;;23.02;57.69;101564.28;5001376;28;45499;-68
2021/07/01 07:45:43;;;;;;;;;10.25;10.25;;;;;23.30;57.03;101569.41;5003739;28;47451;-67
2021/07/01 07:48:08;;;;;;;;;15.00;9.75;;;;;23.51;56.79;101560.16;5004465;28;45501;-72
2021/07/01 07:50:38;;;;;;;;;10.00;8.75;;;;;23.71;55.80;101563.56;5001227;28;45508;-73
2021/07/01 07:53:06;;;;;;;;;11.00;8.50;;;;;24.01;56.19;101560.31;5006032;28;46261;-66
2021/07/01 07:55:34;;;;;;;;;12.25;12.25;;;;;24.36;57.12;101562.53;5003775;28;45764;-68
2021/07/01 07:58:03;;;;;;;;;12.00;9.75;;;;;24.58;53.76;101560.28;5017423;28;45522;-67
2021/07/01 08:00:28;;;;;;;;;11.25;10.25;;;;;24.54;53.01;101561.78;5006473;28;45800;-72
2021/07/01 08:02:58;;;;;;;;;8.75;8.25;;;;;25.34;54.19;101564.47;5004249;28;46480;-73
2021/07/01 08:05:28;;;;;;;;;12.25;9.25;;;;;28.51;51.83;101557.84;5003224;28;45525;-72
2021/07/01 08:07:54;;;;;;;;;14.00;12.25;;;;;31.37;42.71;101560.66;5005810;28;46114;-72
2021/07/01 08:10:25;;;;;;;;;13.50;12.25;;;;;32.71;41.77;101563.19;5003158;28;45622;-77
2021/07/01 08:12:52;;;;;;;;;11.75;11.00;;;;;31.42;40.59;101575.19;5003507;28;46556;-68
2021/07/01 08:15:20;;;;;;;;;11.75;10.75;;;;;30.34;41.84;101568.34;5006069;28;45455;-77
2021/07/01 08:17:48;;;;;;;;;13.75;10.00;;;;;31.04;42.43;101579.13;5007053;28;45536;-67
2021/07/01 08:20:17;;;;;;;;;13.00;10.75;;;;;32.51;42.76;101565.97;5006197;28;45485;-73
2021/07/01 08:22:45;;;;;;;;;11.25;10.50;;;;;34.13;38.57;101557.22;5003594;28;49170;-73
2021/07/01 08:25:11;;;;;;;;;11.00;10.00;;;;;35.62;36.70;101560.94;5003776;28;45801;-67
2021/07/01 08:27:38;;;;;;;;;16.25;13.50;;;;;37.03;34.95;101560.56;5004674;28;46914;-67
2021/07/01 08:30:07;;;;;;;;;10.00;10.00;;;;;38.34;33.15;101551.38;5005998;28;45984;-67
2021/07/01 08:32:33;;;;;;;;;14.75;11.25;;;;;39.61;31.47;101559.78;5004203;28;46733;-68
2021/07/01 08:35:02;;;;;;;;;12.50;11.25;;;;;40.32;30.33;101553.00;5005206;28;45593;-75
2021/07/01 08:37:32;;;;;;;;;12.50;10.25;;;;;39.71;29.88;101555.88;5003935;28;45446;-67
2021/07/01 08:40:04;;;;;;;;;12.50;10.00;;;;;40.25;30.48;101555.47;5003191;28;45500;-73
2021/07/01 08:42:35;;;;;;;;;13.75;12.50;;;;;41.52;29.16;101560.91;5003287;28;46326;-77
2021/07/01 08:45:04;;;;;;;;;16.75;16.00;;;;;42.31;26.65;101563.63;5002770;28;45479;-73
2021/07/01 08:47:35;;;;;;;;;11.75;11.00;;;;;42.81;27.25;101562.53;5005177;28;45536;-77
2021/07/01 08:50:06;;;;;;;;;13.25;11.75;;;;;43.26;24.95;101553.19;5001546;28;45501;-71
2021/07/01 08:52:34;;;;;;;;;11.25;10.75;;;;;42.32;23.42;101554.16;5004188;28;46528;-76
2021/07/01 08:55:06;;;;;;;;;11.75;11.00;;;;;40.33;26.60;101555.41;4999205;28;45421;-71
2021/07/01 08:57:37;;;;;;;;;17.00;13.75;;;;;38.61;27.30;101547.59;5002924;28;45513;-75
2021/07/01 09:00:14;;;;;;;;;14.00;13.75;;;;;37.73;28.90;101545.47;5002514;28;45529;-68
2021/07/01 09:02:45;;;;;;;;;14.25;12.75;;;;;38.14;29.79;101549.97;5001639;28;47934;-73
2021/07/01 09:05:17;;;;;;;;;17.75;13.75;;;;;37.94;29.39;101550.50;5003856;28;45548;-67
2021/07/01 09:07:52;;;;;;;;;13.00;12.25;;;;;36.43;29.58;101552.44;5006095;28;45406;-67
2021/07/01 09:10:18;;;;;;;;;14.25;12.00;;;;;36.27;30.04;101549.13;5003728;28;45442;-71
2021/07/01 09:13:04;;;;;;;;;13.75;12.25;;;;;36.03;29.99;101544.59;5002577;28;46436;-74
2021/07/01 09:15:31;;;;;;;;;14.50;13.50;;;;;36.37;30.45;101548.94;5003378;28;45793;-67
2021/07/01 09:17:58;;;;;;;;;16.00;16.00;;;;;36.03;30.02;101555.59;5001527;28;45702;-67
2021/07/01 09:20:27;;;;;;;;;14.00;14.00;;;;;35.13;30.91;101560.25;5002735;28;45631;-68
2021/07/01 09:22:56;;;;;;;;;18.00;17.25;;;;;33.93;31.37;101549.94;4999270;28;45591;-74
2021/07/01 09:25:24;;;;;;;;;17.75;15.75;;;;;32.89;33.10;101548.09;5000994;28;45662;-73
2021/07/01 09:27:51;;;;;;;;;17.75;16.75;;;;;32.29;32.75;101552.59;4999274;28;51774;-76
2021/07/01 09:30:19;;;;;;;;;14.50;13.25;;;;;31.58;35.08;101551.47;5001894;28;45624;-67
2021/07/01 09:32:45;;;;;;;;;16.25;14.25;;;;;31.06;34.27;101550.47;5004378;28;47615;-68
2021/07/01 09:35:13;;;;;;;;;13.25;13.25;;;;;30.71;35.17;101551.09;5004382;28;45570;-71
2021/07/01 09:37:41;;;;;;;;;13.00;12.25;;;;;30.38;35.95;101541.38;5014636;28;45595;-70
2021/07/01 09:40:10;;;;;;;;;11.75;10.75;;;;;30.27;36.61;101547.81;5003138;28;45614;-68
2021/07/01 09:42:36;;;;;;;;;16.00;12.25;;;;;30.48;37.20;101552.34;5001922;28;46781;-67
2021/07/01 09:45:06;;;;;;;;;12.75;11.25;;;;;31.04;36.01;101549.94;5007321;28;45634;-71
2021/07/01 09:47:36;;;;;;;;;13.50;11.50;;;;;31.74;35.33;101552.31;5003403;28;45623;-74
2021/07/01 09:50:03;;;;;;;;;15.50;13.25;;;;;32.18;34.52;101556.44;5003650;28;45592;-75
2021/07/01 09:52:37;;;;;;;;;13.75;13.75;;;;;32.09;35.28;101550.69;5000001;28;45861;-72
2021/07/01 09:55:04;;;;;;;;;19.00;17.75;;;;;31.91;34.99;101561.06;5003116;28;45549;-67
2021/07/01 09:57:31;;;;;;;;;14.75;14.00;;;;;31.73;34.76;101561.59;5004862;28;45532;-72
2021/07/01 10:00:02;;;;;;;;;15.00;12.75;;;;;31.55;35.03;101553.91;5007881;28;45363;-69
2021/07/01 10:02:29;;;;;;;;;16.75;15.75;;;;;31.36;35.48;101561.78;5004204;28;46776;-73
2021/07/01 10:04:55;;;;;;;;;15.00;14.75;;;;;31.12;34.93;101551.31;5001882;28;46538;-67
2021/07/01 10:07:25;;;;;;;;;9.50;9.50;;;;;31.13;35.50;101557.59;5004545;28;45558;-81
2021/07/01 10:09:56;;;;;;;;;16.50;15.25;;;;;31.67;35.62;101554.47;5006704;28;45372;-72
2021/07/01 10:12:24;;;;;;;;;16.25;14.75;;;;;32.45;34.87;101550.66;5000737;28;46539;-74
2021/07/01 10:14:52;;;;;;;;;14.00;13.25;;;;;33.30;32.71;101542.41;5002891;28;45468;-72
2021/07/01 10:17:19;;;;;;;;;12.50;12.00;;;;;33.69;32.85;101544.38;5005026;28;45454;-70
2021/07/01 10:19:46;;;;;;;;;15.25;14.00;;;;;33.61;32.21;101543.06;5002071;28;45583;-68
2021/07/01 10:22:18;;;;;;;;;18.00;14.25;;;;;33.40;31.89;101541.53;5002700;28;45596;-75
2021/07/01 10:25:02;;;;;;;;;14.00;13.25;;;;;33.22;32.58;101547.69;5008209;28;45516;-68
2021/07/01 10:27:29;;;;;;;;;18.75;17.00;;;;;32.93;32.92;101538.19;5008076;28;45501;-80
2021/07/01 10:29:57;;;;;;;;;16.50;15.25;;;;;32.62;33.49;101540.25;5009675;28;45420;-69
2021/07/01 10:32:41;;;;;;;;;17.00;14.25;;;;;32.43;33.39;101542.72;5006413;28;46080;-75
2021/07/01 10:35:29;;;;;;;;;15.50;15.00;;;;;32.07;33.02;101540.06;5004104;28;45470;-70
2021/07/01 10:37:59;;;;;;;;;15.75;14.25;;;;;31.60;33.89;101537.53;5007153;28;45409;-80
2021/07/01 10:40:25;;;;;;;;;17.25;17.25;;;;;31.12;34.86;101547.78;5005797;28;45558;-68
2021/07/01 10:42:52;;;;;;;;;17.75;16.00;;;;;30.70;34.76;101544.00;5007672;28;46780;-70
2021/07/01 10:45:18;;;;;;;;;17.50;16.75;;;;;30.28;35.75;101536.66;5009537;28;45405;-73
2021/07/01 10:47:43;;;;;;;;;14.25;14.00;;;;;29.83;37.05;101545.28;5012163;28;45870;-71
2021/07/01 10:50:21;;;;;;;;;17.25;16.25;;;;;29.45;36.81;101547.03;5005769;28;45575;-73
2021/07/01 10:52:48;;;;;;;;;18.25;16.25;;;;;29.03;37.76;101547.63;5005930;28;45471;-68
2021/07/01 10:55:17;;;;;;;;;18.50;17.50;;;;;28.63;37.73;101551.44;5005040;28;45624;-71
2021/07/01 10:57:51;;;;;;;;;19.50;17.50;;;;;28.11;38.94;101552.53;5008667;28;45542;-73
2021/07/01 11:00:17;;;;;;;;;20.00;18.75;;;;;27.59;40.04;101553.50;5007205;28;45558;-80
2021/07/01 11:02:46;;;;;;;;;19.00;18.00;;;;;27.16;41.29;101556.72;5009237;28;45437;-69
2021/07/01 11:05:12;;;;;;;;;19.25;18.00;;;;;26.80;41.37;101555.97;5008629;28;45652;-68
2021/07/01 11:07:46;;;;;;;;;18.00;17.75;;;;;26.44;43.27;101557.03;5008700;28;45673;-73
2021/07/01 11:10:14;;;;;;;;;20.75;19.75;;;;;26.13;42.44;101548.16;5005640;28;45491;-74
2021/07/01 11:12:45;;;;;;;;;18.75;17.00;;;;;25.85;44.14;101549.63;5008431;28;46587;-73
2021/07/01 11:15:12;;;;;;;;;20.75;18.75;;;;;25.63;43.57;101545.78;5006482;28;45644;-68
2021/07/01 11:17:42;;;;;;;;;19.75;18.75;;;;;25.48;43.89;101549.72;5009490;28;45555;-73